Time;durP1;ratioP1;P1;durP2;ratioP2;P2;SDS_P1;SDS_P2;PMS_P1;PMS_P2;Temp;Humidity;BMP_temperature;BMP_pressure;BME280_temperature;BME280_humidity;BME280_pressure;Samples;Min_cycle;Max_cycle;Signal;HPM_P1;HPM_P2
2023/08/10 04:22:33;;;;;;;9.32;5.68;;;;;;;12.66;100.00;100641.38;5089361;28;20397;-66
2023/08/10 04:24:58;;;;;;;10.35;6.57;;;;;;;12.65;100.00;100642.38;5089486;28;20033;-66
2023/08/10 04:27:23;;;;;;;8.30;5.15;;;;;;;12.66;100.00;100646.72;5089285;28;20040;-66
2023/08/10 04:29:49;;;;;;;7.18;4.68;;;;;;;12.69;100.00;100645.50;5089012;28;20119;-67
2023/08/10 04:32:14;;;;;;;10.25;5.72;;;;;;;12.80;100.00;100652.31;5089246;28;20032;-67
2023/08/10 04:34:40;;;;;;;9.45;4.93;;;;;;;12.78;100.00;100647.13;5089260;28;20123;-66
2023/08/10 04:37:06;;;;;;;14.88;6.43;;;;;;;12.72;100.00;100654.03;5089248;28;20108;-67
2023/08/10 04:39:32;;;;;;;10.55;5.80;;;;;;;12.74;100.00;100649.31;5088876;28;20040;-67
2023/08/10 04:41:58;;;;;;;20.33;11.15;;;;;;;12.72;100.00;100646.00;5089056;28;20040;-67
2023/08/10 04:44:24;;;;;;;16.15;9.65;;;;;;;12.66;100.00;100648.56;5088966;28;20044;-67
2023/08/10 04:46:49;;;;;;;25.20;11.90;;;;;;;12.70;100.00;100648.00;5088972;28;20383;-67
2023/08/10 04:49:15;;;;;;;14.40;7.35;;;;;;;12.84;100.00;100649.06;5088698;28;20501;-67
2023/08/10 04:51:40;;;;;;;13.60;6.50;;;;;;;12.91;100.00;100649.19;5088906;28;20102;-68
2023/08/10 04:54:06;;;;;;;11.60;6.43;;;;;;;12.87;100.00;100642.56;5088843;28;20044;-67
2023/08/10 04:56:35;;;;;;;13.85;7.50;;;;;;;12.90;100.00;100647.53;5088755;28;20044;-67
2023/08/10 04:59:02;;;;;;;12.30;6.90;;;;;;;12.94;100.00;100655.03;5088402;28;20531;-67
2023/08/10 05:01:27;;;;;;;14.93;7.22;;;;;;;13.03;100.00;100661.13;5088593;28;20085;-67
2023/08/10 05:03:54;;;;;;;11.95;6.68;;;;;;;13.08;100.00;100660.59;5088726;28;20036;-67
2023/08/10 05:06:19;;;;;;;13.20;6.30;;;;;;;13.17;100.00;100663.03;5088550;28;20058;-67
2023/08/10 05:08:45;;;;;;;12.95;6.75;;;;;;;13.25;100.00;100664.84;5088268;28;20036;-65
2023/08/10 05:11:10;;;;;;;12.05;6.30;;;;;;;13.30;100.00;100663.31;5088547;28;20090;-66
2023/08/10 05:13:36;;;;;;;15.13;6.97;;;;;;;13.34;100.00;100674.44;5088437;28;20040;-65
2023/08/10 05:16:03;;;;;;;19.48;8.18;;;;;;;13.39;100.00;100671.25;5088357;28;20094;-67
2023/08/10 05:18:28;;;;;;;16.38;7.85;;;;;;;13.47;100.00;100676.50;5088101;28;20111;-65
2023/08/10 05:20:57;;;;;;;12.27;6.78;;;;;;;13.58;100.00;100674.22;5072370;28;20140;-66
2023/08/10 05:23:23;;;;;;;13.38;7.35;;;;;;;13.64;100.00;100671.84;5067997;28;20116;-65
2023/08/10 05:25:48;;;;;;;16.10;7.90;;;;;;;13.72;100.00;100677.94;5067929;28;20064;-65
2023/08/10 05:28:13;;;;;;;12.80;6.10;;;;;;;13.80;100.00;100677.84;5067496;28;20642;-66
2023/08/10 05:30:39;;;;;;;12.32;6.28;;;;;;;13.90;100.00;100677.59;5067818;28;20037;-65
2023/08/10 05:33:04;;;;;;;11.15;6.03;;;;;;;14.00;100.00;100674.63;5059118;28;20588;-66
2023/08/10 05:35:29;;;;;;;10.43;6.00;;;;;;;14.02;100.00;100680.66;5053428;28;20037;-65
2023/08/10 05:37:55;;;;;;;10.00;5.80;;;;;;;14.06;100.00;100676.56;5054462;28;20046;-66
2023/08/10 05:40:20;;;;;;;11.85;5.95;;;;;;;14.06;100.00;100684.59;5054213;28;20124;-66
2023/08/10 05:42:46;;;;;;;8.40;5.50;;;;;;;14.09;100.00;100686.91;5054359;28;20033;-65
2023/08/10 05:45:19;;;;;;;11.68;5.82;;;;;;;14.16;100.00;100679.81;5060779;28;20040;-65
2023/08/10 05:47:45;;;;;;;8.73;5.13;;;;;;;14.19;100.00;100675.91;5074339;28;20462;-66
2023/08/10 05:50:14;;;;;;;9.38;5.85;;;;;;;14.24;100.00;100684.22;5074025;28;20503;-66
2023/08/10 05:52:40;;;;;;;13.73;6.10;;;;;;;14.25;100.00;100686.72;5074178;28;20032;-65
2023/08/10 05:55:06;;;;;;;10.93;6.30;;;;;;;14.32;100.00;100695.66;5074102;28;20058;-66
2023/08/10 05:57:32;;;;;;;17.17;8.43;;;;;;;14.39;100.00;100701.09;5074116;28;20043;-66
2023/08/10 05:59:57;;;;;;;9.75;6.32;;;;;;;14.45;100.00;100702.22;5073862;28;20036;-65
2023/08/10 06:02:23;;;;;;;14.48;6.13;;;;;;;14.51;100.00;100710.34;5074098;28;20082;-66
2023/08/10 06:04:52;;;;;;;10.85;6.25;;;;;;;14.57;100.00;100716.81;5074020;28;20068;-64
2023/08/10 06:07:18;;;;;;;9.38;6.30;;;;;;;14.64;100.00;100723.09;5073858;28;20407;-62
2023/08/10 06:09:43;;;;;;;11.55;6.95;;;;;;;14.69;100.00;100718.00;5073672;28;20039;-64
2023/08/10 06:12:09;;;;;;;10.93;5.90;;;;;;;14.75;100.00;100716.44;5073922;28;20540;-62
2023/08/10 06:14:34;;;;;;;9.93;5.88;;;;;;;14.81;100.00;100721.88;5073779;28;20044;-67
2023/08/10 06:17:00;;;;;;;9.68;6.00;;;;;;;14.88;100.00;100717.41;5073789;28;20040;-67
2023/08/10 06:19:25;;;;;;;10.88;5.93;;;;;;;14.95;100.00;100727.38;5073472;28;20063;-67
2023/08/10 06:21:51;;;;;;;11.15;6.32;;;;;;;15.13;100.00;100722.41;5073569;28;20039;-67
2023/08/10 06:24:17;;;;;;;11.50;6.07;;;;;;;15.25;100.00;100720.84;5073635;28;20171;-66
2023/08/10 06:26:42;;;;;;;9.10;5.65;;;;;;;15.31;100.00;100722.75;5073487;28;20097;-67
2023/08/10 06:29:08;;;;;;;9.70;5.55;;;;;;;15.33;100.00;100728.78;5073237;28;20083;-67
2023/08/10 06:31:34;;;;;;;10.68;6.75;;;;;;;15.42;100.00;100726.78;5073424;28;20150;-66
2023/08/10 06:33:59;;;;;;;10.43;6.15;;;;;;;15.48;100.00;100726.84;5073511;28;20085;-66
2023/08/10 06:36:26;;;;;;;12.48;6.70;;;;;;;15.53;100.00;100733.50;5073318;28;20035;-66
2023/08/10 06:38:52;;;;;;;9.52;5.82;;;;;;;15.59;100.00;100738.09;5073051;28;20513;-66
2023/08/10 06:41:18;;;;;;;10.90;5.93;;;;;;;15.64;100.00;100727.63;5073289;28;20036;-66
2023/08/10 06:43:43;;;;;;;9.20;5.88;;;;;;;15.71;100.00;100729.34;5072704;28;20063;-67
2023/08/10 06:46:09;;;;;;;10.35;5.82;;;;;;;15.80;100.00;100732.72;5072945;28;20047;-66
2023/08/10 06:48:34;;;;;;;12.13;5.93;;;;;;;15.86;100.00;100729.25;5072876;28;20040;-66
2023/08/10 06:50:59;;;;;;;11.90;6.10;;;;;;;15.93;100.00;100743.56;5073101;28;20037;-66
2023/08/10 06:53:25;;;;;;;8.45;5.50;;;;;;;16.01;100.00;100735.34;5073067;28;20048;-66
2023/08/10 06:55:50;;;;;;;8.25;5.40;;;;;;;16.09;100.00;100746.94;5072941;28;20036;-66
2023/08/10 06:58:18;;;;;;;11.35;5.65;;;;;;;16.14;100.00;100736.44;5072786;28;20050;-66
2023/08/10 07:00:47;;;;;;;14.30;5.68;;;;;;;16.21;100.00;100742.69;5072893;28;20117;-66
2023/08/10 07:03:12;;;;;;;11.68;5.97;;;;;;;16.28;100.00;100746.25;5072948;28;20089;-66
2023/08/10 07:05:38;;;;;;;11.60;5.88;;;;;;;16.32;100.00;100744.81;5072775;28;20110;-66
2023/08/10 07:08:04;;;;;;;12.10;5.53;;;;;;;16.42;100.00;100755.19;5072802;28;20513;-67
2023/08/10 07:10:29;;;;;;;11.32;6.20;;;;;;;16.47;100.00;100756.28;5072611;28;20125;-66
2023/08/10 07:12:55;;;;;;;11.35;6.55;;;;;;;16.55;100.00;100750.72;5072744;28;20046;-67
2023/08/10 07:15:20;;;;;;;11.50;5.90;;;;;;;16.61;100.00;100749.09;5072668;28;20047;-67
2023/08/10 07:17:46;;;;;;;15.15;6.25;;;;;;;16.67;100.00;100742.09;5072558;28;20040;-66
2023/08/10 07:20:12;;;;;;;9.48;5.68;;;;;;;16.66;100.00;100745.81;5072197;28;20033;-67
2023/08/10 07:22:38;;;;;;;13.00;6.15;;;;;;;16.82;100.00;100745.47;5072560;28;20044;-67
2023/08/10 07:25:05;;;;;;;9.90;5.35;;;;;;;16.88;100.00;100747.34;5072449;28;20043;-67
2023/08/10 07:27:33;;;;;;;8.18;5.43;;;;;;;16.95;100.00;100739.28;5072442;28;20047;-67
2023/08/10 07:29:59;;;;;;;9.90;6.35;;;;;;;17.02;100.00;100745.56;5072138;28;20032;-67
2023/08/10 07:32:24;;;;;;;9.32;5.78;;;;;;;17.11;100.00;100744.31;5072314;28;20479;-67
2023/08/10 07:34:49;;;;;;;13.98;5.88;;;;;;;17.15;100.00;100744.72;5072326;28;20044;-67
2023/08/10 07:37:15;;;;;;;10.02;5.90;;;;;;;17.25;100.00;100740.63;5072182;28;20048;-67
2023/08/10 07:39:40;;;;;;;10.95;5.72;;;;;;;17.36;100.00;100747.25;5071910;28;20105;-67
2023/08/10 07:42:06;;;;;;;10.50;5.47;;;;;;;17.38;100.00;100745.19;5072262;28;20165;-67
2023/08/10 07:44:32;;;;;;;8.85;5.50;;;;;;;17.45;100.00;100751.41;5071841;28;20040;-67
2023/08/10 07:46:57;;;;;;;12.57;5.50;;;;;;;17.49;100.00;100752.66;5072230;28;20044;-67
2023/08/10 07:49:23;;;;;;;8.18;5.60;;;;;;;17.57;100.00;100754.31;5071780;28;20037;-67
2023/08/10 07:51:48;;;;;;;11.13;5.50;;;;;;;17.59;100.00;100746.84;5068986;28;20040;-66
2023/08/10 07:54:14;;;;;;;16.88;5.68;;;;;;;17.67;100.00;100740.41;5062541;28;20024;-66
2023/08/10 07:56:41;;;;;;;8.88;5.47;;;;;;;17.85;100.00;100746.88;5061064;28;20522;-66
2023/08/10 07:59:07;;;;;;;9.75;6.43;;;;;;;17.96;100.00;100741.91;5060684;28;20561;-67
2023/08/10 08:01:32;;;;;;;11.13;5.60;;;;;;;18.07;100.00;100743.97;5062619;28;20067;-66
2023/08/10 08:03:57;;;;;;;12.18;6.00;;;;;;;18.12;100.00;100736.03;5060857;28;20041;-66
2023/08/10 08:06:23;;;;;;;11.95;6.05;;;;;;;18.22;100.00;100741.00;5061231;28;20136;-67
2023/08/10 08:08:49;;;;;;;12.25;5.22;;;;;;;18.21;100.00;100734.81;5062047;28;20510;-67
2023/08/10 08:11:14;;;;;;;8.27;5.03;;;;;;;18.36;100.00;100739.94;5042464;28;20452;-66
2023/08/10 08:13:40;;;;;;;11.00;5.93;;;;;;;18.40;100.00;100733.09;5061686;28;20036;-66
2023/08/10 08:16:06;;;;;;;10.27;5.32;;;;;;;18.44;100.00;100728.91;5061732;28;20120;-67
2023/08/10 08:18:45;;;;;;;8.60;5.93;;;;;;;18.60;100.00;100733.00;5060008;28;20100;-67
2023/08/10 08:21:18;;;;;;;7.55;5.00;;;;;;;18.74;100.00;100726.53;5060166;28;20041;-67
2023/08/10 08:23:45;;;;;;;13.15;7.00;;;;;;;18.90;99.82;100734.13;5061224;28;20035;-66
2023/08/10 08:26:11;;;;;;;10.18;5.15;;;;;;;18.86;99.06;100726.69;5062310;28;20039;-66
2023/08/10 08:28:37;;;;;;;19.67;5.78;;;;;;;18.91;99.02;100727.69;5060197;28;20061;-67
2023/08/10 08:31:02;;;;;;;11.02;4.40;;;;;;;19.02;99.70;100726.16;5061264;28;20064;-67
2023/08/10 08:33:28;;;;;;;9.63;5.28;;;;;;;19.15;99.85;100723.38;5062055;28;20120;-66
2023/08/10 08:35:54;;;;;;;9.02;5.07;;;;;;;19.35;99.21;100725.13;5060048;28;20057;-66
2023/08/10 08:38:19;;;;;;;6.63;4.82;;;;;;;19.47;100.00;100735.00;5061471;28;20032;-67
2023/08/10 08:40:45;;;;;;;7.75;4.78;;;;;;;19.51;99.54;100724.59;5061446;28;20450;-66
2023/08/10 08:43:11;;;;;;;8.45;4.90;;;;;;;19.60;97.48;100719.75;5060136;28;20064;-67
2023/08/10 08:45:39;;;;;;;9.40;4.85;;;;;;;19.64;95.65;100719.09;5061921;28;20502;-66
2023/08/10 08:48:07;;;;;;;7.80;4.72;;;;;;;19.71;93.87;100725.28;5061123;28;20476;-66
2023/08/10 08:50:35;;;;;;;11.65;5.00;;;;;;;19.86;91.27;100718.69;5058556;28;20048;-66
2023/08/10 08:53:04;;;;;;;10.65;5.40;;;;;;;19.98;91.62;100714.22;5061340;28;20044;-66
2023/08/10 08:55:30;;;;;;;9.00;5.20;;;;;;;20.10;92.38;100712.41;5061955;28;20056;-66
2023/08/10 08:57:55;;;;;;;8.57;4.57;;;;;;;20.25;92.99;100720.97;5056802;28;20036;-66
2023/08/10 09:00:21;;;;;;;9.32;4.40;;;;;;;20.41;92.97;100719.56;5051149;28;20045;-66
2023/08/10 09:02:46;;;;;;;7.85;4.82;;;;;;;20.45;90.28;100725.38;5051306;28;20490;-66
2023/08/10 09:05:12;;;;;;;8.82;4.10;;;;;;;20.59;92.01;100718.72;5051331;28;20057;-66
2023/08/10 09:07:37;;;;;;;5.43;4.28;;;;;;;20.67;89.89;100714.88;5052395;28;20450;-66
2023/08/10 09:10:03;;;;;;;8.50;4.25;;;;;;;20.76;89.48;100710.81;5054833;28;20091;-66
2023/08/10 09:12:29;;;;;;;9.05;4.55;;;;;;;20.86;89.15;100713.78;5055061;28;20393;-66
2023/08/10 09:15:06;;;;;;;7.80;4.53;;;;;;;21.18;87.00;100706.25;5054812;28;20033;-66
2023/08/10 09:17:34;;;;;;;7.50;4.55;;;;;;;21.35;87.87;100696.41;5055024;28;20048;-66
2023/08/10 09:20:00;;;;;;;8.52;4.82;;;;;;;21.44;85.89;100706.91;5054726;28;20037;-66
2023/08/10 09:22:37;;;;;;;6.15;4.20;;;;;;;21.58;84.23;100697.50;5054800;28;20044;-66
2023/08/10 09:25:03;;;;;;;;;;;;;;;21.68;84.08;100692.31;5055277;28;20116;-66
2023/08/10 09:27:30;;;;;;;7.22;4.90;;;;;;;21.81;81.96;100694.78;5054686;28;20004;-66
2023/08/10 09:30:01;;;;;;;8.68;4.45;;;;;;;21.78;79.76;100680.88;5054355;28;20058;-66
2023/08/10 09:32:27;;;;;;;7.13;4.55;;;;;;;21.77;80.13;100671.09;5054650;28;20044;-66
2023/08/10 09:34:53;;;;;;;7.32;4.15;;;;;;;21.91;81.44;100667.09;5054845;28;20036;-67
2023/08/10 09:37:19;;;;;;;6.97;4.68;;;;;;;22.13;78.46;100667.31;5054537;28;20464;-67
2023/08/10 09:39:45;;;;;;;6.55;3.80;;;;;;;22.21;76.52;100666.94;5054434;28;20044;-67
2023/08/10 09:42:10;;;;;;;6.78;3.92;;;;;;;22.32;74.95;100667.97;5054772;28;20738;-68
2023/08/10 09:44:47;;;;;;;6.18;3.42;;;;;;;22.78;78.02;100666.97;5054487;28;20400;-68
2023/08/10 09:47:14;;;;;;;7.13;4.30;;;;;;;23.11;72.81;100673.56;5054273;28;20040;-67
2023/08/10 09:49:52;;;;;;;5.53;3.80;;;;;;;23.33;71.67;100666.31;5069906;28;20029;-68
2023/08/10 09:52:17;;;;;;;7.53;3.83;;;;;;;23.39;71.08;100669.94;5074348;28;20055;-68
2023/08/10 09:54:43;;;;;;;5.45;4.03;;;;;;;23.86;72.29;100664.13;5074277;28;20495;-68
2023/08/10 09:57:08;;;;;;;6.45;3.90;;;;;;;24.20;62.92;100654.00;5073023;28;20116;-68
2023/08/10 09:59:34;;;;;;;7.03;4.00;;;;;;;24.25;61.08;100656.75;5073961;28;20494;-68
2023/08/10 10:02:00;;;;;;;5.47;3.30;;;;;;;24.21;59.06;100650.19;5074067;28;20037;-68
2023/08/10 10:04:29;;;;;;;5.13;3.72;;;;;;;24.57;61.58;100656.88;5074091;28;20085;-68
2023/08/10 10:06:56;;;;;;;4.88;3.03;;;;;;;24.86;60.65;100662.91;5073955;28;20036;-67
2023/08/10 10:09:22;;;;;;;5.38;3.22;;;;;;;25.00;61.04;100655.97;5073767;28;20119;-68
2023/08/10 10:11:50;;;;;;;4.57;3.60;;;;;;;25.43;56.26;100654.19;5073974;28;20036;-68
2023/08/10 10:14:16;;;;;;;3.80;3.05;;;;;;;25.43;54.92;100652.28;5074104;28;20388;-68
2023/08/10 10:16:41;;;;;;;6.25;3.40;;;;;;;26.06;54.65;100657.00;5073794;28;20047;-68
2023/08/10 10:19:08;;;;;;;8.98;2.92;;;;;;;26.36;50.99;100661.78;5073457;28;20115;-66
2023/08/10 10:21:34;;;;;;;6.20;3.00;;;;;;;26.44;49.85;100662.13;5073724;28;20040;-66
2023/08/10 10:24:01;;;;;;;5.43;3.03;;;;;;;26.68;49.46;100659.72;5073832;28;20067;-66
2023/08/10 10:26:27;;;;;;;5.95;3.20;;;;;;;26.91;48.38;100655.66;5073558;28;20070;-67
2023/08/10 10:29:16;;;;;;;5.53;2.88;;;;;;;27.26;48.40;100643.94;5073391;28;20045;-66
2023/08/10 10:31:42;;;;;;;4.60;3.15;;;;;;;27.39;48.87;100644.50;5073574;28;20111;-66
2023/08/10 10:34:14;;;;;;;5.63;3.00;;;;;;;27.82;48.66;100635.66;5073511;28;20151;-67
2023/08/10 10:36:40;;;;;;;4.85;2.80;;;;;;;27.77;47.74;100632.09;5073363;28;20051;-67
2023/08/10 10:39:11;;;;;;;4.05;2.88;;;;;;;27.82;43.76;100627.44;5073240;28;20115;-67
2023/08/10 10:41:41;;;;;;;3.30;2.45;;;;;;;28.31;44.48;100624.00;5073370;28;20033;-67
2023/08/10 10:44:08;;;;;;;3.80;2.72;;;;;;;28.21;45.10;100624.00;5073247;28;20181;-67
2023/08/10 10:46:34;;;;;;;3.55;2.80;;;;;;;27.93;44.48;100628.25;5073189;28;20032;-67
2023/08/10 10:49:07;;;;;;;4.45;2.80;;;;;;;28.18;46.93;100618.28;5072922;28;20035;-67
2023/08/10 10:51:43;;;;;;;4.50;2.63;;;;;;;28.38;46.43;100612.72;5073231;28;20047;-67
2023/08/10 10:54:09;;;;;;;4.00;2.45;;;;;;;28.65;43.02;100609.53;5073219;28;20129;-67
2023/08/10 10:56:35;;;;;;;4.18;2.42;;;;;;;29.08;42.92;100604.28;5073030;28;20515;-67
2023/08/10 10:59:01;;;;;;;4.78;3.03;;;;;;;29.36;42.69;100600.75;5072720;28;20032;-67
2023/08/10 11:01:26;;;;;;;4.35;2.45;;;;;;;29.59;41.25;100609.31;5073013;28;20143;-67
2023/08/10 11:03:56;;;;;;;4.40;2.28;;;;;;;29.99;39.25;100606.09;5073041;28;20044;-67
2023/08/10 11:06:24;;;;;;;5.55;3.33;;;;;;;29.92;40.70;100611.09;5066582;28;20407;-68
2023/08/10 11:08:51;;;;;;;3.58;2.22;;;;;;;30.57;38.98;100607.78;5052787;28;20365;-66
2023/08/10 11:11:18;;;;;;;4.72;2.33;;;;;;;30.73;38.19;100603.72;5052781;28;20044;-66
2023/08/10 11:13:44;;;;;;;3.03;2.40;;;;;;;30.76;35.23;100588.56;5052825;28;20029;-66
2023/08/10 11:16:09;;;;;;;2.57;1.87;;;;;;;30.76;35.95;100585.81;5052677;28;20037;-66
2023/08/10 11:18:37;;;;;;;3.63;2.40;;;;;;;30.86;35.66;100587.59;5052573;28;20082;-66
2023/08/10 11:21:06;;;;;;;4.20;2.38;;;;;;;30.51;32.67;100584.22;5052606;28;20067;-67
2023/08/10 11:23:31;;;;;;;3.25;2.22;;;;;;;30.67;36.10;100571.09;5052712;28;20037;-67
2023/08/10 11:25:57;;;;;;;3.95;2.08;;;;;;;30.69;34.49;100569.69;5052526;28;20040;-67
2023/08/10 11:28:25;;;;;;;3.63;2.30;;;;;;;31.24;34.54;100574.56;5052283;28;20480;-67
2023/08/10 11:30:50;;;;;;;3.28;1.85;;;;;;;31.32;35.21;100576.63;5051873;28;20048;-67
2023/08/10 11:33:16;;;;;;;3.97;2.77;;;;;;;31.48;35.94;100574.38;5052478;28;20037;-66
2023/08/10 11:35:51;;;;;;;3.97;2.40;;;;;;;31.34;37.35;100577.94;5052345;28;20131;-66
2023/08/10 11:38:17;;;;;;;4.07;2.58;;;;;;;31.40;35.53;100572.34;5052070;28;20090;-68
2023/08/10 11:40:42;;;;;;;3.57;2.40;;;;;;;31.97;35.87;100573.69;5052342;28;20454;-67
2023/08/10 11:43:12;;;;;;;4.00;2.37;;;;;;;30.32;36.94;100577.94;5052188;28;20048;-66
2023/08/10 11:45:39;;;;;;;4.90;2.92;;;;;;;31.34;36.24;100574.38;5054858;28;20033;-67
2023/08/10 11:48:09;;;;;;;2.75;2.30;;;;;;;31.81;34.84;100575.13;5062226;28;20063;-66
2023/08/10 11:50:38;;;;;;;5.97;2.42;;;;;;;31.66;34.33;100572.66;5061487;28;20439;-66
2023/08/10 11:53:11;;;;;;;3.33;2.42;;;;;;;32.13;34.84;100574.16;5062246;28;20131;-66
2023/08/10 11:55:50;;;;;;;2.50;2.20;;;;;;;32.35;35.70;100570.69;5061155;28;20025;-66
2023/08/10 11:58:18;;;;;;;4.10;2.33;;;;;;;32.72;33.58;100572.25;5060813;28;20041;-66
2023/08/10 12:00:49;;;;;;;4.25;2.17;;;;;;;32.19;34.56;100566.59;5061350;28;20078;-66
2023/08/10 12:03:17;;;;;;;3.20;2.20;;;;;;;32.19;35.25;100572.09;5060957;28;20061;-67
2023/08/10 12:05:44;;;;;;;2.67;2.10;;;;;;;33.14;33.80;100570.94;5061251;28;20671;-66
2023/08/10 12:08:11;;;;;;;3.63;2.15;;;;;;;32.70;34.79;100577.28;5062221;28;20054;-65
2023/08/10 12:10:41;;;;;;;3.35;2.08;;;;;;;33.08;33.03;100576.91;5061263;28;20032;-67
2023/08/10 12:13:10;;;;;;;2.65;2.35;;;;;;;33.12;32.68;100581.44;5060670;28;20105;-67
2023/08/10 12:15:37;;;;;;;3.30;2.10;;;;;;;33.22;32.35;100580.38;5060754;28;20090;-67
2023/08/10 12:18:04;;;;;;;3.60;2.13;;;;;;;32.97;32.73;100573.59;5061060;28;20032;-67
2023/08/10 12:20:30;;;;;;;3.10;2.05;;;;;;;33.33;32.68;100575.41;5062299;28;20111;-67
2023/08/10 12:22:55;;;;;;;3.63;2.30;;;;;;;33.23;32.15;100576.47;5060858;28;20124;-66
2023/08/10 12:25:21;;;;;;;4.80;1.97;;;;;;;33.00;33.81;100575.72;5061421;28;20052;-66
2023/08/10 12:27:47;;;;;;;3.37;1.97;;;;;;;33.52;33.13;100581.53;5062297;28;20033;-66
2023/08/10 12:30:12;;;;;;;2.53;1.97;;;;;;;33.43;32.77;100572.38;5060173;28;20033;-66
2023/08/10 12:32:38;;;;;;;4.03;2.20;;;;;;;33.55;32.50;100567.06;5060463;28;20290;-66
2023/08/10 12:35:04;;;;;;;1.93;1.70;;;;;;;33.21;31.23;100563.00;5067452;28;20407;-66
2023/08/10 12:37:29;;;;;;;4.30;2.17;;;;;;;33.48;31.26;100577.78;5071600;28;20498;-66
2023/08/10 12:39:56;;;;;;;2.87;2.00;;;;;;;33.48;32.65;100577.78;5071343;28;20041;-66
2023/08/10 12:42:21;;;;;;;3.10;2.08;;;;;;;33.63;30.80;100580.09;5072510;28;20426;-66
2023/08/10 12:44:47;;;;;;;4.28;2.38;;;;;;;33.43;30.52;100592.53;5075755;28;20048;-66
2023/08/10 12:47:12;;;;;;;2.53;1.97;;;;;;;33.61;30.44;100587.09;5075473;28;20056;-66
2023/08/10 12:49:38;;;;;;;3.03;2.10;;;;;;;33.84;30.35;100585.84;5075313;28;20459;-66
2023/08/10 12:52:05;;;;;;;2.50;1.83;;;;;;;33.22;32.67;100577.63;5075401;28;20044;-65
2023/08/10 12:54:30;;;;;;;3.10;2.00;;;;;;;33.26;31.63;100586.09;5075436;28;20059;-66
2023/08/10 12:56:56;;;;;;;3.50;2.30;;;;;;;33.56;31.34;100590.78;5075342;28;20384;-66
2023/08/10 12:59:21;;;;;;;2.77;1.83;;;;;;;33.86;32.04;100591.06;5075129;28;20048;-65
2023/08/10 13:01:47;;;;;;;2.97;2.13;;;;;;;34.04;30.31;100580.88;5075352;28;20028;-65
2023/08/10 13:04:12;;;;;;;3.10;2.00;;;;;;;34.38;29.62;100588.41;5075341;28;20399;-65
2023/08/10 13:06:38;;;;;;;2.10;1.70;;;;;;;33.65;30.04;100575.09;5075175;28;20048;-66
2023/08/10 13:09:03;;;;;;;2.70;1.70;;;;;;;33.80;31.08;100573.81;5066492;28;20066;-66
2023/08/10 13:11:28;;;;;;;2.27;1.70;;;;;;;33.97;31.60;100578.59;5055060;28;20541;-65
2023/08/10 13:13:54;;;;;;;2.63;1.90;;;;;;;33.79;32.06;100568.63;5055051;28;20446;-66
2023/08/10 13:16:19;;;;;;;3.27;2.33;;;;;;;34.27;31.39;100572.13;5054998;28;20037;-65
2023/08/10 13:18:45;;;;;;;2.93;1.93;;;;;;;33.54;32.19;100565.47;5054772;28;20045;-65
2023/08/10 13:21:10;;;;;;;2.60;1.83;;;;;;;34.37;31.50;100571.00;5054820;28;20040;-67
2023/08/10 13:23:35;;;;;;;3.23;2.17;;;;;;;33.98;30.10;100563.66;5054964;28;20055;-67
2023/08/10 13:26:01;;;;;;;3.30;1.90;;;;;;;34.09;29.59;100569.66;5054736;28;20430;-67
2023/08/10 13:28:26;;;;;;;5.03;2.20;;;;;;;34.30;29.33;100570.69;5054602;28;20464;-67
2023/08/10 13:30:52;;;;;;;3.40;1.90;;;;;;;34.28;30.98;100568.22;5054718;28;20037;-67
2023/08/10 13:33:17;;;;;;;3.43;2.40;;;;;;;34.06;29.66;100573.91;5053611;28;20454;-67
2023/08/10 13:35:42;;;;;;;2.93;1.50;;;;;;;34.10;30.17;100574.06;5054544;28;20052;-67
2023/08/10 13:38:08;;;;;;;2.63;1.90;;;;;;;33.33;29.68;100570.69;5054436;28;20041;-65
2023/08/10 13:40:33;;;;;;;5.67;2.13;;;;;;;32.82;31.08;100571.19;5054529;28;20037;-65
2023/08/10 13:42:58;;;;;;;2.57;1.97;;;;;;;32.38;29.85;100559.81;5055663;28;20518;-65
2023/08/10 13:45:24;;;;;;;3.37;2.13;;;;;;;31.96;31.28;100561.03;5074450;28;20040;-66
2023/08/10 13:47:49;;;;;;;2.73;1.80;;;;;;;31.58;30.72;100566.75;5074471;28;20037;-65
2023/08/10 13:50:15;;;;;;;3.97;1.80;;;;;;;31.08;30.99;100566.53;5073999;28;20115;-65
2023/08/10 13:52:40;;;;;;;2.57;1.90;;;;;;;30.48;32.67;100574.66;5074433;28;20205;-66
2023/08/10 13:55:06;;;;;;;2.43;1.83;;;;;;;30.38;33.49;100571.25;5073754;28;20037;-66
2023/08/10 13:57:32;;;;;;;2.50;1.80;;;;;;;30.17;32.47;100560.56;5074359;28;20037;-65
2023/08/10 13:59:58;;;;;;;2.97;1.93;;;;;;;29.69;33.34;100554.31;5072876;28;20044;-65
2023/08/10 14:02:24;;;;;;;2.63;2.10;;;;;;;29.56;34.15;100555.81;5074253;28;20479;-65
2023/08/10 14:04:50;;;;;;;3.77;2.13;;;;;;;29.40;35.43;100552.38;5074140;28;20033;-66
2023/08/10 14:07:15;;;;;;;3.73;2.03;;;;;;;29.33;35.71;100549.19;5074162;28;20509;-66
2023/08/10 14:09:42;;;;;;;3.33;2.05;;;;;;;28.89;35.61;100538.38;5073885;28;20510;-66
2023/08/10 14:12:07;;;;;;;3.83;2.17;;;;;;;28.89;36.31;100543.84;5073901;28;20029;-65
2023/08/10 14:14:33;;;;;;;3.08;2.10;;;;;;;28.22;35.55;100538.00;5074021;28;20119;-64
2023/08/10 14:16:58;;;;;;;3.67;2.10;;;;;;;28.21;34.38;100552.00;5073840;28;20040;-65
2023/08/10 14:19:24;;;;;;;3.88;1.85;;;;;;;28.18;34.67;100560.78;5073646;28;20040;-68
2023/08/10 14:21:50;;;;;;;2.60;1.92;;;;;;;28.27;34.52;100548.13;5073885;28;20028;-68
2023/08/10 14:24:16;;;;;;;4.00;2.13;;;;;;;28.05;34.46;100537.56;5073797;28;20032;-66
2023/08/10 14:26:42;;;;;;;4.40;2.40;;;;;;;28.08;34.92;100537.00;5071655;28;20395;-66
2023/08/10 14:29:07;;;;;;;3.17;1.95;;;;;;;27.95;34.26;100537.63;5073273;28;20028;-66
2023/08/10 14:31:33;;;;;;;3.40;2.28;;;;;;;27.78;34.17;100543.47;5072436;28;20040;-66
2023/08/10 14:33:58;;;;;;;3.13;2.00;;;;;;;27.81;34.48;100538.22;5073423;28;20484;-66
2023/08/10 14:36:24;;;;;;;4.03;2.08;;;;;;;27.83;34.87;100533.28;5073501;28;20047;-66
2023/08/10 14:38:50;;;;;;;5.25;2.38;;;;;;;27.80;34.27;100533.03;5072813;28;20036;-66
2023/08/10 14:41:15;;;;;;;3.53;1.98;;;;;;;27.76;34.76;100523.75;5073828;28;20373;-66
2023/08/10 14:43:41;;;;;;;3.22;1.90;;;;;;;27.13;35.66;100532.41;5073378;28;20119;-66
2023/08/10 14:46:06;;;;;;;3.75;2.45;;;;;;;27.32;34.97;100518.94;5073319;28;20091;-66
2023/08/10 14:48:32;;;;;;;2.50;1.90;;;;;;;27.52;34.31;100527.13;5073036;28;20040;-66
2023/08/10 14:50:57;;;;;;;3.65;1.85;;;;;;;27.07;35.39;100516.28;5073177;28;20044;-66
2023/08/10 14:53:23;;;;;;;2.30;1.75;;;;;;;27.18;34.93;100517.88;5073245;28;20459;-66
2023/08/10 14:55:48;;;;;;;3.78;1.90;;;;;;;27.36;35.66;100519.22;5073157;28;20030;-66
2023/08/10 14:58:14;;;;;;;2.88;1.98;;;;;;;27.41;34.56;100521.94;5072831;28;20455;-66
2023/08/10 15:00:39;;;;;;;2.42;1.80;;;;;;;27.45;34.65;100512.91;5073119;28;20540;-66
2023/08/10 15:03:05;;;;;;;2.65;1.98;;;;;;;27.46;34.47;100519.19;5072968;28;20047;-66
2023/08/10 15:05:31;;;;;;;5.60;2.13;;;;;;;27.26;33.58;100515.44;5071990;28;20036;-67
2023/08/10 15:07:57;;;;;;;3.80;2.38;;;;;;;27.28;36.22;100517.88;5072798;28;20090;-67
2023/08/10 15:10:22;;;;;;;2.60;1.77;;;;;;;27.21;35.42;100517.34;5072596;28;20036;-67
2023/08/10 15:12:48;;;;;;;2.70;1.70;;;;;;;27.27;35.33;100519.78;5072751;28;20450;-67
2023/08/10 15:15:15;;;;;;;3.28;2.10;;;;;;;27.13;34.80;100520.66;5072706;28;20032;-67
2023/08/10 15:17:41;;;;;;;5.43;2.30;;;;;;;27.14;35.74;100511.34;5072645;28;20042;-66
2023/08/10 15:20:08;;;;;;;3.88;2.30;;;;;;;27.04;34.38;100506.69;5072293;28;20399;-67
2023/08/10 15:22:37;;;;;;;2.65;1.90;;;;;;;26.90;34.63;100516.56;5072805;28;20028;-67
2023/08/10 15:25:05;;;;;;;2.83;1.98;;;;;;;26.98;34.96;100515.97;5072544;28;20381;-67
2023/08/10 15:27:30;;;;;;;2.95;1.92;;;;;;;27.03;34.65;100516.81;5072621;28;20410;-67
2023/08/10 15:29:56;;;;;;;5.28;2.28;;;;;;;26.93;31.84;100521.44;5072225;28;20120;-67
2023/08/10 15:32:21;;;;;;;2.63;1.80;;;;;;;26.79;31.93;100515.72;5072290;28;20097;-67
2023/08/10 15:34:47;;;;;;;3.63;1.92;;;;;;;26.86;32.55;100526.38;5072455;28;20036;-67
2023/08/10 15:37:13;;;;;;;4.18;2.50;;;;;;;26.81;32.31;100523.66;5072326;28;20044;-67